Time;durP1;ratioP1;P1;durP2;ratioP2;P2;SDS_P1;SDS_P2;PMS_P1;PMS_P2;Temp;Humidity;BMP_temperature;BMP_pressure;BME280_temperature;BME280_humidity;BME280_pressure;Samples;Min_cycle;Max_cycle;Signal;HPM_P1;HPM_P2
2023/02/01 00:02:12;;;;;;;25.20;6.15;;;5.30;99.90;;;;;;5017797;28;20044;-79
2023/02/01 00:04:39;;;;;;;15.45;5.40;;;5.20;99.90;;;;;;5000758;28;20042;-81
2023/02/01 00:07:06;;;;;;;17.75;5.18;;;5.20;99.90;;;;;;5017949;28;20042;-81
2023/02/01 00:09:33;;;;;;;14.10;4.50;;;5.20;99.90;;;;;;5017762;28;20049;-82
2023/02/01 00:12:01;;;;;;;20.55;5.53;;;5.20;99.90;;;;;;5001246;28;20045;-80
2023/02/01 00:14:28;;;;;;;21.55;5.78;;;5.20;99.90;;;;;;5001436;28;20073;-80
2023/02/01 00:16:54;;;;;;;19.80;5.10;;;5.20;99.90;;;;;;5000681;28;20034;-82
2023/02/01 00:19:22;;;;;;;20.35;5.88;;;5.10;99.90;;;;;;4997698;28;20046;-81
2023/02/01 00:21:48;;;;;;;13.73;6.18;;;5.10;99.90;;;;;;4981693;28;20408;-80
2023/02/01 00:24:15;;;;;;;18.00;5.60;;;5.10;99.90;;;;;;4980716;28;20077;-81
2023/02/01 00:26:42;;;;;;;18.60;6.25;;;5.10;99.90;;;;;;4994250;28;20059;-82
2023/02/01 00:29:08;;;;;;;19.75;4.63;;;5.10;99.90;;;;;;4961156;28;20476;-80
2023/02/01 00:31:35;;;;;;;18.98;5.53;;;5.00;99.90;;;;;;4979413;28;20039;-82
2023/02/01 00:34:03;;;;;;;18.13;5.00;;;5.00;99.90;;;;;;4962450;28;20343;-82
2023/02/01 00:36:31;;;;;;;18.08;6.18;;;5.00;99.90;;;;;;4961397;28;20039;-79
2023/02/01 00:38:57;;;;;;;12.93;5.15;;;5.10;99.90;;;;;;4961985;28;20091;-79
2023/02/01 00:41:24;;;;;;;18.80;5.20;;;5.10;99.90;;;;;;4978970;28;20370;-80
2023/02/01 00:43:52;;;;;;;17.35;4.60;;;5.10;99.90;;;;;;4977989;28;20485;-80
2023/02/01 00:46:18;;;;;;;20.17;6.47;;;5.00;99.90;;;;;;4979293;28;20061;-80
2023/02/01 00:48:45;;;;;;;21.73;5.65;;;5.00;99.90;;;;;;4977524;28;20047;-81
2023/02/01 00:51:12;;;;;;;13.57;5.03;;;5.00;99.90;;;;;;4977953;28;20034;-79
2023/02/01 00:53:39;;;;;;;22.50;5.25;;;5.00;99.90;;;;;;4961732;28;20046;-82
2023/02/01 00:56:06;;;;;;;18.88;5.13;;;5.00;99.90;;;;;;4978209;28;20062;-79
2023/02/01 00:58:32;;;;;;;15.75;5.47;;;5.00;99.90;;;;;;4961361;28;20401;-81
2023/02/01 01:00:59;;;;;;;16.50;4.22;;;5.00;99.90;;;;;;4977685;28;20445;-81
2023/02/01 01:03:26;;;;;;;28.70;7.50;;;5.00;99.90;;;;;;4975431;28;20055;-79
2023/02/01 01:05:53;;;;;;;13.88;5.28;;;5.00;99.90;;;;;;4961555;28;20049;-81
2023/02/01 01:08:19;;;;;;;26.00;6.20;;;5.00;99.90;;;;;;4977278;28;20054;-81
2023/02/01 01:10:46;;;;;;;18.92;6.05;;;5.00;99.90;;;;;;4976675;28;20054;-80
2023/02/01 01:13:12;;;;;;;22.23;5.30;;;5.00;99.90;;;;;;4977435;28;20497;-81
2023/02/01 01:15:39;;;;;;;15.82;5.57;;;5.00;99.90;;;;;;4960480;28;20039;-83
2023/02/01 01:18:06;;;;;;;16.35;5.45;;;5.00;99.90;;;;;;4986321;28;20372;-79
2023/02/01 01:20:32;;;;;;;20.35;5.82;;;5.00;99.90;;;;;;4983390;28;20494;-82
2023/02/01 01:22:59;;;;;;;20.52;6.07;;;5.00;99.90;;;;;;4998762;28;20136;-78
2023/02/01 01:25:26;;;;;;;20.30;4.53;;;5.00;99.90;;;;;;4999986;28;20117;-80
2023/02/01 01:27:53;;;;;;;20.98;6.32;;;5.10;99.90;;;;;;4999805;28;20046;-80
2023/02/01 01:30:19;;;;;;;19.08;5.10;;;5.00;99.90;;;;;;4982909;28;20483;-79
2023/02/01 01:32:46;;;;;;;22.85;9.27;;;5.00;99.90;;;;;;5000037;28;20124;-82
2023/02/01 01:35:13;;;;;;;18.27;5.00;;;5.00;99.90;;;;;;5016210;28;20515;-83
2023/02/01 01:37:39;;;;;;;20.77;6.20;;;5.10;99.90;;;;;;4998692;28;20072;-80
2023/02/01 01:40:06;;;;;;;22.02;4.95;;;5.10;99.90;;;;;;5017345;28;20349;-82
2023/02/01 01:42:33;;;;;;;26.00;6.70;;;5.10;99.90;;;;;;5015081;28;20048;-82
2023/02/01 01:45:00;;;;;;;20.27;5.97;;;5.20;99.90;;;;;;5015882;28;20460;-80
2023/02/01 01:47:28;;;;;;;17.33;5.68;;;5.20;99.90;;;;;;4983517;28;20372;-80
2023/02/01 01:49:54;;;;;;;21.67;5.13;;;5.20;99.90;;;;;;5014942;28;20460;-82
2023/02/01 01:52:21;;;;;;;26.00;5.07;;;5.20;99.90;;;;;;4999434;28;20103;-81
2023/02/01 01:54:48;;;;;;;17.33;4.50;;;5.10;99.90;;;;;;5016605;28;20464;-81
2023/02/01 01:57:14;;;;;;;19.88;5.00;;;5.10;99.90;;;;;;4998401;28;20045;-82
2023/02/01 01:59:41;;;;;;;17.15;6.00;;;5.10;99.90;;;;;;5015564;28;20042;-82
2023/02/01 02:02:08;;;;;;;18.65;4.78;;;5.10;99.90;;;;;;4999366;28;20038;-83
2023/02/01 02:04:35;;;;;;;25.73;5.55;;;5.10;99.90;;;;;;4982251;28;20041;-80
2023/02/01 02:07:01;;;;;;;19.63;4.95;;;5.10;99.90;;;;;;4998974;28;20115;-82
2023/02/01 02:09:28;;;;;;;17.27;4.68;;;5.10;99.90;;;;;;5015493;28;20361;-80
2023/02/01 02:11:55;;;;;;;21.33;5.32;;;5.10;99.90;;;;;;5015547;28;20054;-83
2023/02/01 02:14:23;;;;;;;19.50;5.68;;;5.10;99.90;;;;;;4998746;28;20044;-79
2023/02/01 02:16:49;;;;;;;18.00;5.95;;;5.10;99.90;;;;;;4998146;28;20143;-80
2023/02/01 02:19:17;;;;;;;24.60;7.88;;;5.10;99.90;;;;;;5014431;28;20062;-80
2023/02/01 02:21:43;;;;;;;19.27;4.85;;;5.10;99.90;;;;;;5031622;28;20369;-81
2023/02/01 02:24:10;;;;;;;16.92;4.65;;;5.10;99.90;;;;;;5030786;28;20049;-82
2023/02/01 02:26:37;;;;;;;19.00;4.90;;;5.10;99.90;;;;;;5031476;28;20050;-79
2023/02/01 02:29:03;;;;;;;18.08;5.78;;;5.10;99.90;;;;;;4997691;28;20037;-80
2023/02/01 02:31:30;;;;;;;23.88;5.75;;;5.00;99.90;;;;;;5015049;28;20062;-80
2023/02/01 02:33:57;;;;;;;16.17;4.13;;;5.10;99.90;;;;;;4998732;28;20049;-82
2023/02/01 02:36:24;;;;;;;15.75;4.88;;;5.10;99.90;;;;;;4997933;28;20144;-80
2023/02/01 02:38:50;;;;;;;22.40;6.63;;;5.20;99.90;;;;;;5015291;28;20048;-82
2023/02/01 02:47:23;;;;;;;29.23;5.75;;;5.20;99.90;;;;;;5014872;28;20165;-81
2023/02/01 02:49:35;;;;;;;24.45;6.47;;;5.20;99.90;;;;;;5014567;28;20042;-81
2023/02/01 02:54:51;;;;;;;23.60;5.82;;;5.30;99.90;;;;;;5014530;28;20065;-83
2023/02/01 03:05:37;;;;;;;18.85;5.28;;;5.60;99.90;;;;;;5014408;28;20050;-81
2023/02/01 03:08:04;;;;;;;15.85;5.15;;;5.70;99.90;;;;;;4997742;28;20461;-82
2023/02/01 03:10:30;;;;;;;17.88;4.88;;;5.80;99.90;;;;;;5013397;28;20141;-79
2023/02/01 03:12:57;;;;;;;21.65;5.88;;;5.90;99.90;;;;;;5014317;28;20048;-80
2023/02/01 03:15:26;;;;;;;16.08;4.70;;;5.90;99.90;;;;;;5015111;28;20372;-81
2023/02/01 03:17:53;;;;;;;20.13;4.15;;;5.90;99.90;;;;;;5012900;28;20096;-83
2023/02/01 03:20:20;;;;;;;19.75;6.60;;;5.90;99.90;;;;;;5014073;28;20057;-80
2023/02/01 03:22:47;;;;;;;15.43;5.55;;;5.90;99.90;;;;;;5013194;28;20049;-81
2023/02/01 03:25:15;;;;;;;14.93;3.90;;;5.80;99.90;;;;;;5013934;28;20041;-84
2023/02/01 03:27:41;;;;;;;19.83;5.60;;;5.80;99.90;;;;;;4997079;28;20065;-81
2023/02/01 03:30:09;;;;;;;15.55;4.43;;;5.70;99.90;;;;;;5013047;28;20052;-80
2023/02/01 03:35:22;;;;;;;16.58;4.63;;;5.70;99.90;;;;;;5030448;28;20049;-81
2023/02/01 03:37:49;;;;;;;14.63;3.97;;;5.60;99.90;;;;;;4996661;28;20495;-82
2023/02/01 03:40:15;;;;;;;22.27;5.00;;;5.60;99.90;;;;;;5030383;28;20056;-83
2023/02/01 03:42:42;;;;;;;11.57;4.63;;;5.60;99.90;;;;;;5013154;28;20065;-79
2023/02/01 03:45:09;;;;;;;15.10;4.88;;;5.60;99.90;;;;;;5014021;28;20046;-85
2023/02/01 03:47:35;;;;;;;25.35;4.88;;;5.50;99.90;;;;;;5030018;28;20053;-80
2023/02/01 03:50:02;;;;;;;21.88;5.88;;;5.50;99.90;;;;;;4996738;28;20572;-81
2023/02/01 03:52:29;;;;;;;16.15;4.50;;;5.50;99.90;;;;;;5015066;28;20065;-80
2023/02/01 03:54:55;;;;;;;16.67;5.32;;;5.50;99.90;;;;;;5030179;28;20046;-80
2023/02/01 03:57:23;;;;;;;17.88;5.40;;;5.50;99.90;;;;;;5029222;28;20077;-81
2023/02/01 03:59:49;;;;;;;13.90;4.10;;;5.50;99.90;;;;;;5030127;28;20042;-79
2023/02/01 04:02:16;;;;;;;20.33;6.50;;;5.50;99.90;;;;;;5030015;28;20056;-81
2023/02/01 04:04:45;;;;;;;15.23;4.25;;;5.50;99.90;;;;;;5013646;28;20083;-81
2023/02/01 04:07:16;;;;;;;18.52;5.10;;;5.60;99.90;;;;;;5029989;28;20491;-81
2023/02/01 04:09:43;;;;;;;16.15;4.65;;;5.50;99.90;;;;;;5013650;28;20046;-83
2023/02/01 04:12:10;;;;;;;10.77;3.80;;;5.50;99.90;;;;;;4997383;28;20045;-82
2023/02/01 04:14:36;;;;;;;22.60;4.63;;;5.50;99.90;;;;;;5014842;28;20038;-80
2023/02/01 04:17:03;;;;;;;27.30;6.18;;;5.50;99.90;;;;;;5028770;28;20119;-81
2023/02/01 04:19:30;;;;;;;15.20;4.68;;;5.50;99.90;;;;;;5013590;28;20057;-81
2023/02/01 04:21:56;;;;;;;19.50;5.43;;;5.50;99.90;;;;;;5014422;28;20046;-80
2023/02/01 04:24:24;;;;;;;27.67;5.78;;;5.50;99.90;;;;;;4996407;28;20488;-81
2023/02/01 04:26:51;;;;;;;20.92;5.32;;;5.50;99.90;;;;;;5014269;28;20041;-81
2023/02/01 04:29:18;;;;;;;20.88;5.50;;;5.50;99.90;;;;;;5013419;28;20060;-84
2023/02/01 04:31:46;;;;;;;15.65;3.78;;;5.50;99.90;;;;;;5014679;28;20049;-80
2023/02/01 04:34:14;;;;;;;19.42;5.10;;;5.50;99.90;;;;;;4997219;28;20049;-82
2023/02/01 04:36:40;;;;;;;16.85;4.68;;;5.50;99.90;;;;;;4996136;28;20037;-80
2023/02/01 04:39:07;;;;;;;15.77;4.85;;;5.50;99.90;;;;;;5000688;28;20057;-81
2023/02/01 04:41:34;;;;;;;14.80;4.93;;;5.50;99.90;;;;;;5017916;28;20072;-84
2023/02/01 04:44:01;;;;;;;17.42;4.20;;;5.50;99.90;;;;;;5017009;28;20487;-80
2023/02/01 04:46:27;;;;;;;16.98;5.05;;;5.50;99.90;;;;;;5018017;28;20050;-82
2023/02/01 04:48:54;;;;;;;23.00;5.88;;;5.50;99.90;;;;;;5017526;28;20338;-81
2023/02/01 04:51:20;;;;;;;20.63;4.97;;;5.50;99.90;;;;;;4983540;28;20109;-83
2023/02/01 04:53:49;;;;;;;12.18;3.97;;;5.50;99.90;;;;;;5000305;28;20385;-81
2023/02/01 04:56:16;;;;;;;12.85;4.68;;;5.50;99.90;;;;;;5016897;28;20061;-83
2023/02/01 04:58:42;;;;;;;25.30;6.50;;;5.50;99.90;;;;;;5000339;28;20046;-81
2023/02/01 05:01:09;;;;;;;15.25;4.60;;;5.50;99.90;;;;;;5000161;28;20038;-81
2023/02/01 05:03:35;;;;;;;16.70;4.45;;;5.60;99.90;;;;;;5016772;28;20053;-80
2023/02/01 05:06:04;;;;;;;17.63;4.28;;;5.50;99.90;;;;;;5017661;28;20100;-79
2023/02/01 05:08:31;;;;;;;14.00;4.90;;;5.50;99.90;;;;;;5017191;28;20046;-81
2023/02/01 05:10:58;;;;;;;16.83;4.45;;;5.60;99.90;;;;;;4999382;28;20457;-81
2023/02/01 05:16:12;;;;;;;16.20;5.13;;;5.60;99.90;;;;;;5016571;28;20488;-83
2023/02/01 05:18:38;;;;;;;19.15;5.63;;;5.60;99.90;;;;;;5010520;28;20061;-82
2023/02/01 05:21:05;;;;;;;13.85;4.53;;;5.50;99.90;;;;;;5016242;28;20465;-83
2023/02/01 05:23:32;;;;;;;16.70;4.43;;;5.50;99.90;;;;;;5016298;28;20108;-82
2023/02/01 05:25:59;;;;;;;13.85;4.03;;;5.50;99.90;;;;;;5016164;28;20053;-81
2023/02/01 05:28:26;;;;;;;18.55;5.18;;;5.50;99.90;;;;;;5016780;28;20054;-82
2023/02/01 05:30:52;;;;;;;20.73;6.35;;;5.50;99.90;;;;;;5016160;28;20056;-79
2023/02/01 05:33:19;;;;;;;19.10;4.13;;;5.70;99.90;;;;;;5017025;28;20042;-79
2023/02/01 05:35:46;;;;;;;17.92;4.10;;;5.70;99.90;;;;;;5031708;28;20060;-82
2023/02/01 05:38:12;;;;;;;29.60;6.57;;;5.70;99.90;;;;;;5015648;28;20447;-81
2023/02/01 05:40:39;;;;;;;14.20;5.00;;;5.70;99.90;;;;;;5016270;28;20045;-80
2023/02/01 05:43:07;;;;;;;13.23;3.45;;;5.70;99.90;;;;;;4998752;28;20052;-83
2023/02/01 05:45:34;;;;;;;23.10;6.15;;;5.70;99.90;;;;;;5016808;28;20041;-83
2023/02/01 05:48:00;;;;;;;17.95;4.72;;;5.70;99.90;;;;;;5016361;28;20057;-80
2023/02/01 05:50:27;;;;;;;13.75;3.80;;;5.70;99.90;;;;;;5030516;28;20088;-79
2023/02/01 05:52:56;;;;;;;23.15;4.40;;;5.70;99.90;;;;;;5016619;28;20056;-82
2023/02/01 05:55:23;;;;;;;26.27;6.15;;;5.70;99.90;;;;;;5016847;28;20121;-79
2023/02/01 05:57:49;;;;;;;15.35;3.63;;;5.70;99.90;;;;;;5015820;28;20441;-83
2023/02/01 06:00:16;;;;;;;18.65;4.72;;;5.70;99.90;;;;;;5016468;28;20472;-81
2023/02/01 06:02:43;;;;;;;18.63;5.38;;;5.80;99.90;;;;;;4998470;28;20391;-80
2023/02/01 06:05:10;;;;;;;19.58;5.07;;;5.90;99.90;;;;;;5016384;28;20376;-81
2023/02/01 06:07:36;;;;;;;17.75;4.53;;;5.90;99.90;;;;;;4998897;28;20473;-81
2023/02/01 06:10:04;;;;;;;15.63;3.90;;;5.80;99.90;;;;;;5014817;28;20457;-81
2023/02/01 06:12:31;;;;;;;18.20;4.22;;;5.90;99.90;;;;;;5015486;28;20033;-81
2023/02/01 06:14:59;;;;;;;12.27;5.00;;;5.90;99.90;;;;;;5016611;28;20049;-79
2023/02/01 06:17:25;;;;;;;13.45;4.15;;;5.90;99.90;;;;;;5009681;28;20061;-82
2023/02/01 06:19:52;;;;;;;22.20;6.25;;;5.90;99.90;;;;;;4996696;28;20358;-80
2023/02/01 06:22:19;;;;;;;13.85;3.78;;;5.90;99.90;;;;;;4978835;28;20405;-79
2023/02/01 06:24:46;;;;;;;16.30;4.40;;;5.80;99.90;;;;;;4996503;28;20042;-80
2023/02/01 06:27:14;;;;;;;15.93;4.03;;;5.80;99.90;;;;;;4979545;28;20042;-80
2023/02/01 06:29:41;;;;;;;13.15;4.18;;;5.90;99.90;;;;;;4978632;28;20469;-81
2023/02/01 06:32:07;;;;;;;16.50;4.38;;;5.90;99.90;;;;;;4996281;28;20049;-82
2023/02/01 06:34:37;;;;;;;18.40;4.22;;;5.90;99.90;;;;;;4996966;28;20117;-81
2023/02/01 06:37:03;;;;;;;20.55;4.65;;;5.90;99.90;;;;;;4962231;28;20038;-83
2023/02/01 06:39:30;;;;;;;28.42;6.53;;;5.90;99.90;;;;;;4979325;28;20465;-80
2023/02/01 06:41:56;;;;;;;17.25;4.63;;;5.90;99.90;;;;;;4979102;28;20124;-80
2023/02/01 06:44:23;;;;;;;14.43;4.43;;;5.90;99.90;;;;;;4978325;28;20046;-82
2023/02/01 06:46:50;;;;;;;13.73;4.95;;;5.90;99.90;;;;;;4978934;28;20046;-80
2023/02/01 06:49:18;;;;;;;10.55;4.13;;;5.90;99.90;;;;;;4962150;28;20065;-82
2023/02/01 06:51:44;;;;;;;12.30;3.97;;;5.80;99.90;;;;;;4978824;28;20058;-81
2023/02/01 06:54:13;;;;;;;20.55;5.55;;;5.90;99.90;;;;;;4996140;28;20045;-80
2023/02/01 06:56:40;;;;;;;12.73;4.18;;;5.80;99.90;;;;;;4977817;28;20053;-81
2023/02/01 06:59:06;;;;;;;14.95;3.80;;;5.80;99.90;;;;;;4978545;28;20126;-80
2023/02/01 07:01:33;;;;;;;15.95;4.53;;;5.80;99.90;;;;;;4978593;28;20046;-81
2023/02/01 07:04:00;;;;;;;17.25;4.10;;;5.80;99.90;;;;;;4977698;28;20043;-80
2023/02/01 07:06:26;;;;;;;22.05;5.40;;;5.80;99.90;;;;;;4995787;28;20420;-79
2023/02/01 07:08:55;;;;;;;13.52;4.72;;;5.70;99.90;;;;;;4995594;28;20454;-82
2023/02/01 07:11:22;;;;;;;15.57;4.53;;;5.70;99.90;;;;;;4978114;28;20038;-81
2023/02/01 07:13:49;;;;;;;19.40;4.53;;;5.80;99.90;;;;;;4995842;28;20044;-78
2023/02/01 07:16:15;;;;;;;17.20;3.75;;;5.90;99.90;;;;;;4978092;28;20042;-78
2023/02/01 07:18:42;;;;;;;14.05;3.92;;;5.90;99.90;;;;;;4978695;28;20054;-81
2023/02/01 07:21:08;;;;;;;20.30;5.25;;;5.90;99.90;;;;;;4978483;28;20144;-83
2023/02/01 07:23:36;;;;;;;14.55;3.55;;;6.00;99.90;;;;;;4977791;28;20050;-80
2023/02/01 07:26:03;;;;;;;17.30;4.15;;;6.00;99.90;;;;;;4978690;28;20412;-80
2023/02/01 07:28:29;;;;;;;12.80;4.32;;;6.00;99.90;;;;;;4962104;28;20050;-79
2023/02/01 07:30:56;;;;;;;16.77;4.57;;;6.00;99.90;;;;;;4993659;28;20042;-81
2023/02/01 07:33:25;;;;;;;19.75;6.28;;;6.00;99.90;;;;;;4995398;28;20428;-81
2023/02/01 07:35:53;;;;;;;22.95;5.82;;;6.10;99.90;;;;;;4995057;28;20050;-80
2023/02/01 07:38:21;;;;;;;19.20;5.13;;;6.10;99.90;;;;;;4994295;28;20042;-81
2023/02/01 07:40:48;;;;;;;20.63;5.38;;;6.10;99.90;;;;;;4963040;28;20050;-80
2023/02/01 07:43:16;;;;;;;19.88;4.55;;;6.00;99.90;;;;;;4978123;28;20042;-79
2023/02/01 07:45:43;;;;;;;14.90;4.32;;;6.00;99.90;;;;;;4995612;28;20056;-81
2023/02/01 07:48:09;;;;;;;13.57;4.63;;;6.00;99.90;;;;;;4994216;28;20110;-83
2023/02/01 07:50:36;;;;;;;13.35;4.10;;;6.00;99.90;;;;;;4953220;28;20069;-79
2023/02/01 07:53:03;;;;;;;25.45;5.82;;;5.90;99.90;;;;;;4975958;28;20035;-80
2023/02/01 07:55:30;;;;;;;23.35;5.15;;;5.80;99.90;;;;;;4981279;28;20034;-83
2023/02/01 07:57:56;;;;;;;11.40;4.55;;;5.90;99.90;;;;;;4977340;28;20070;-78
2023/02/01 08:03:09;;;;;;;22.58;6.15;;;6.00;99.90;;;;;;4994784;28;20040;-80
2023/02/01 08:05:44;;;;;;;21.45;4.63;;;5.90;99.90;;;;;;4964516;28;20051;-78
2023/02/01 08:08:11;;;;;;;19.90;6.80;;;6.00;99.90;;;;;;4978741;28;20046;-78
2023/02/01 08:10:37;;;;;;;22.75;5.82;;;6.00;99.90;;;;;;4961850;28;20479;-80
2023/02/01 08:13:10;;;;;;;17.40;4.88;;;6.10;99.90;;;;;;4980446;28;20448;-80
2023/02/01 08:15:37;;;;;;;15.05;4.22;;;6.10;99.90;;;;;;4981710;28;20053;-81
2023/02/01 08:18:05;;;;;;;15.32;4.75;;;6.10;99.90;;;;;;5007774;28;20066;-81
2023/02/01 08:20:45;;;;;;;25.33;4.75;;;6.10;99.90;;;;;;4987769;28;20129;-81
2023/02/01 08:23:14;;;;;;;18.63;4.47;;;6.10;99.90;;;;;;5017911;28;20523;-79
2023/02/01 08:25:41;;;;;;;22.80;6.33;;;6.10;99.90;;;;;;5001632;28;20064;-78
2023/02/01 08:28:07;;;;;;;20.88;5.03;;;6.10;99.90;;;;;;4984653;28;20307;-79
2023/02/01 08:30:34;;;;;;;13.95;4.63;;;6.20;99.90;;;;;;5000027;28;20120;-81
2023/02/01 08:33:01;;;;;;;21.35;6.53;;;6.30;99.90;;;;;;5018820;28;20415;-82
2023/02/01 08:35:28;;;;;;;20.50;5.85;;;6.40;99.90;;;;;;5018315;28;20045;-79
2023/02/01 08:38:09;;;;;;;19.70;5.03;;;6.40;99.90;;;;;;5016875;28;20081;-80
2023/02/01 08:40:35;;;;;;;23.35;5.32;;;6.40;99.90;;;;;;5018305;28;20046;-80
2023/02/01 08:43:03;;;;;;;22.08;6.40;;;6.40;99.90;;;;;;5000014;28;20065;-80
2023/02/01 08:45:30;;;;;;;20.90;4.90;;;6.50;99.90;;;;;;5017839;28;20107;-81
2023/02/01 08:47:57;;;;;;;19.35;4.70;;;6.50;99.90;;;;;;5000732;28;20052;-79
2023/02/01 08:50:24;;;;;;;14.68;3.83;;;6.50;99.90;;;;;;5017022;28;20038;-78
2023/02/01 08:52:51;;;;;;;16.23;4.47;;;6.50;99.90;;;;;;5000837;28;20465;-80
2023/02/01 08:55:18;;;;;;;18.42;4.68;;;6.40;99.90;;;;;;5000971;28;20407;-79
2023/02/01 08:57:44;;;;;;;16.75;4.75;;;6.50;99.90;;;;;;4999729;28;20038;-77
2023/02/01 09:00:11;;;;;;;14.02;5.38;;;6.50;99.90;;;;;;5018147;28;20052;-81
2023/02/01 09:02:38;;;;;;;20.55;4.63;;;6.50;99.90;;;;;;5000866;28;20403;-78
2023/02/01 09:05:04;;;;;;;18.73;5.07;;;6.50;99.90;;;;;;5036326;28;20041;-78
2023/02/01 09:07:31;;;;;;;12.93;4.53;;;6.50;99.90;;;;;;5001165;28;20380;-80
2023/02/01 09:10:00;;;;;;;17.95;4.80;;;6.50;99.90;;;;;;4983111;28;20038;-80
2023/02/01 09:12:27;;;;;;;17.65;4.40;;;6.50;99.90;;;;;;5017451;28;20047;-81
2023/02/01 09:14:56;;;;;;;11.68;3.92;;;6.60;99.90;;;;;;5017417;28;20060;-80
2023/02/01 09:17:23;;;;;;;14.02;3.95;;;6.70;99.90;;;;;;5016253;28;20068;-78
2023/02/01 09:19:50;;;;;;;13.13;4.97;;;6.90;99.90;;;;;;5016717;28;20057;-82
2023/02/01 09:22:16;;;;;;;18.08;3.90;;;7.00;99.90;;;;;;5010579;28;20041;-81
2023/02/01 09:24:43;;;;;;;16.83;4.25;;;7.10;99.90;;;;;;5018001;28;20460;-80
2023/02/01 09:27:10;;;;;;;17.60;5.45;;;7.20;99.90;;;;;;5029225;28;20045;-81
2023/02/01 09:29:37;;;;;;;23.63;6.15;;;7.30;99.90;;;;;;5004936;28;20119;-79
2023/02/01 09:32:04;;;;;;;18.15;4.75;;;7.30;99.90;;;;;;5019383;28;20128;-81
2023/02/01 09:34:31;;;;;;;14.20;4.45;;;7.40;99.90;;;;;;5016590;28;20048;-78
2023/02/01 09:36:58;;;;;;;16.75;4.72;;;7.50;99.90;;;;;;4997706;28;20042;-79
2023/02/01 09:39:25;;;;;;;18.42;3.58;;;7.60;99.90;;;;;;4996848;28;20129;-78
2023/02/01 09:41:52;;;;;;;16.77;4.82;;;7.70;99.90;;;;;;4995738;28;20125;-80
2023/02/01 09:44:19;;;;;;;18.63;5.10;;;7.70;99.90;;;;;;4978472;28;20042;-77
2023/02/01 09:46:45;;;;;;;19.75;5.28;;;7.70;99.90;;;;;;4996472;28;20043;-79
2023/02/01 09:49:12;;;;;;;12.15;3.53;;;7.70;99.90;;;;;;4994242;28;20070;-79
2023/02/01 09:51:39;;;;;;;11.70;3.53;;;7.60;99.90;;;;;;4995475;28;20069;-79
2023/02/01 09:54:07;;;;;;;10.20;3.33;;;7.70;99.90;;;;;;4979693;28;20034;-80
2023/02/01 09:56:33;;;;;;;17.70;4.47;;;7.70;99.90;;;;;;4995333;28;20122;-80
2023/02/01 09:59:00;;;;;;;13.38;3.85;;;7.70;99.90;;;;;;4995874;28;20056;-78
2023/02/01 10:01:27;;;;;;;13.60;4.60;;;7.70;99.90;;;;;;4996767;28;20377;-79
2023/02/01 10:03:53;;;;;;;13.48;3.90;;;7.80;99.90;;;;;;4995676;28;20038;-78
2023/02/01 10:06:20;;;;;;;12.98;4.75;;;8.00;99.90;;;;;;5014379;28;20111;-77
2023/02/01 10:08:47;;;;;;;12.88;4.28;;;8.20;99.90;;;;;;5016217;28;20050;-78
2023/02/01 10:11:13;;;;;;;15.32;3.53;;;8.40;99.90;;;;;;5015058;28;20527;-81
2023/02/01 10:13:40;;;;;;;25.10;6.07;;;8.50;99.90;;;;;;4982704;28;20050;-79
2023/02/01 10:16:07;;;;;;;16.00;5.63;;;8.60;99.90;;;;;;5013631;28;20468;-79
2023/02/01 10:18:34;;;;;;;17.55;3.88;;;8.70;99.90;;;;;;5015728;28;20350;-80
2023/02/01 10:21:00;;;;;;;16.52;4.50;;;8.80;99.90;;;;;;5015892;28;20149;-79
2023/02/01 10:23:27;;;;;;;15.13;3.60;;;8.90;99.90;;;;;;4997443;28;20045;-80
2023/02/01 10:26:00;;;;;;;14.43;4.55;;;8.90;99.90;;;;;;5015216;28;20100;-79
2023/02/01 10:28:26;;;;;;;19.30;5.40;;;9.10;99.90;;;;;;5015583;28;20065;-81
2023/02/01 10:30:53;;;;;;;11.43;3.20;;;9.10;99.90;;;;;;5014477;28;20045;-81
2023/02/01 10:33:20;;;;;;;15.98;4.93;;;9.10;99.90;;;;;;5015702;28;20417;-80
2023/02/01 10:35:47;;;;;;;16.55;3.53;;;9.20;99.90;;;;;;4997038;28;20092;-79
2023/02/01 10:38:13;;;;;;;12.75;3.42;;;9.20;99.90;;;;;;4997877;28;20416;-82
2023/02/01 10:40:40;;;;;;;18.50;4.03;;;9.30;99.90;;;;;;5015471;28;20423;-81
2023/02/01 10:43:07;;;;;;;11.85;4.03;;;9.50;99.90;;;;;;4997308;28;20041;-78
2023/02/01 10:45:33;;;;;;;16.20;4.57;;;9.70;99.90;;;;;;4982013;28;20046;-78
2023/02/01 10:48:00;;;;;;;13.98;3.70;;;9.70;99.90;;;;;;4981427;28;20044;-79
2023/02/01 10:50:26;;;;;;;17.25;4.35;;;9.60;99.90;;;;;;4980862;28;20459;-79
2023/02/01 10:52:53;;;;;;;13.27;3.33;;;9.60;99.90;;;;;;5015107;28;20107;-79
2023/02/01 10:55:20;;;;;;;15.30;4.97;;;9.70;99.90;;;;;;5015166;28;20549;-79
2023/02/01 10:57:46;;;;;;;17.63;5.57;;;9.60;99.90;;;;;;5013864;28;20048;-78
2023/02/01 11:00:13;;;;;;;14.80;4.38;;;9.60;99.90;;;;;;4997837;28;20133;-78
2023/02/01 11:02:39;;;;;;;16.02;3.80;;;9.50;99.90;;;;;;4996768;28;20057;-83
2023/02/01 11:05:08;;;;;;;12.85;3.33;;;9.80;99.90;;;;;;4978209;28;20439;-79
2023/02/01 11:07:34;;;;;;;11.82;4.13;;;10.00;99.90;;;;;;4977835;28;20132;-78
2023/02/01 11:10:01;;;;;;;13.52;3.30;;;9.80;99.90;;;;;;4993261;28;20074;-79
2023/02/01 11:12:28;;;;;;;15.32;3.60;;;9.50;99.90;;;;;;4978116;28;20042;-78
2023/02/01 11:14:55;;;;;;;10.77;4.13;;;9.20;99.90;;;;;;4978121;28;20046;-79
2023/02/01 11:17:23;;;;;;;16.80;4.72;;;9.10;99.90;;;;;;4993705;28;20046;-77
2023/02/01 11:19:50;;;;;;;21.08;5.20;;;9.10;99.90;;;;;;4998417;28;20061;-80
2023/02/01 11:22:17;;;;;;;13.38;4.95;;;9.30;99.90;;;;;;5013831;28;20056;-79
2023/02/01 11:24:43;;;;;;;13.75;3.95;;;9.50;99.90;;;;;;4996851;28;20049;-79
2023/02/01 11:27:10;;;;;;;16.73;4.18;;;9.70;99.90;;;;;;4996771;28;20547;-80
2023/02/01 11:29:39;;;;;;;15.75;5.18;;;10.20;99.90;;;;;;5013573;28;20388;-78
2023/02/01 11:32:05;;;;;;;14.60;4.13;;;10.60;99.90;;;;;;5013209;28;20053;-82
2023/02/01 11:34:32;;;;;;;11.85;4.13;;;10.80;99.90;;;;;;4980737;28;20042;-82
2023/02/01 11:36:59;;;;;;;13.73;4.88;;;10.70;99.90;;;;;;4995071;28;20042;-80
2023/02/01 11:39:25;;;;;;;15.13;4.50;;;10.60;99.90;;;;;;5014637;28;20038;-80
2023/02/01 11:41:52;;;;;;;13.30;4.65;;;10.50;99.90;;;;;;4997772;28;20046;-81
2023/02/01 11:44:19;;;;;;;14.02;3.97;;;10.40;99.90;;;;;;4996432;28;20053;-80
2023/02/01 11:46:45;;;;;;;12.88;3.88;;;10.40;99.90;;;;;;4996591;28;20046;-81
2023/02/01 11:49:12;;;;;;;15.60;4.75;;;10.30;99.90;;;;;;4996362;28;20076;-80
2023/02/01 11:51:38;;;;;;;18.27;4.55;;;10.10;99.90;;;;;;5014775;28;20038;-79
2023/02/01 11:54:05;;;;;;;14.02;4.13;;;10.00;99.90;;;;;;5014961;28;20042;-83
2023/02/01 11:56:32;;;;;;;12.35;4.10;;;9.80;99.90;;;;;;4980141;28;20053;-80
2023/02/01 11:58:58;;;;;;;10.25;3.85;;;9.70;99.90;;;;;;5014678;28;20484;-82
2023/02/01 12:01:25;;;;;;;17.08;5.05;;;9.70;99.90;;;;;;4997329;28;20104;-79
2023/02/01 12:03:52;;;;;;;14.35;3.47;;;9.70;99.90;;;;;;5013409;28;20046;-80
2023/02/01 12:06:18;;;;;;;16.92;4.70;;;9.80;99.90;;;;;;5013353;28;20401;-81
2023/02/01 12:08:45;;;;;;;15.38;4.03;;;9.80;99.90;;;;;;5014597;28;20042;-80
2023/02/01 12:11:12;;;;;;;15.30;3.72;;;9.80;99.90;;;;;;4980008;28;20048;-81
2023/02/01 12:13:39;;;;;;;12.88;3.30;;;9.80;99.90;;;;;;4980420;28;20050;-79
2023/02/01 12:16:05;;;;;;;11.23;3.50;;;9.80;99.90;;;;;;4995254;28;20030;-78
2023/02/01 12:18:32;;;;;;;17.23;5.03;;;9.80;99.90;;;;;;4993294;28;20489;-81
2023/02/01 12:20:59;;;;;;;13.05;3.60;;;9.80;99.90;;;;;;4992955;28;20121;-81
2023/02/01 12:23:26;;;;;;;16.08;4.32;;;9.90;99.90;;;;;;4992240;28;20042;-79
2023/02/01 12:25:52;;;;;;;14.50;3.70;;;10.00;99.90;;;;;;4977496;28;20062;-83
2023/02/01 12:28:19;;;;;;;11.40;4.10;;;10.10;99.90;;;;;;5011531;28;20057;-80
2023/02/01 12:30:46;;;;;;;17.80;4.00;;;10.20;99.90;;;;;;4996534;28;20038;-81
2023/02/01 12:33:12;;;;;;;15.07;5.70;;;10.20;99.90;;;;;;5015030;28;20100;-81
2023/02/01 12:35:39;;;;;;;15.75;4.63;;;10.30;99.90;;;;;;4996030;28;20034;-81
2023/02/01 12:38:06;;;;;;;13.23;3.92;;;10.40;99.90;;;;;;5014457;28;20073;-79
2023/02/01 12:40:33;;;;;;;14.10;3.72;;;10.40;99.90;;;;;;5020089;28;20048;-79
2023/02/01 12:42:59;;;;;;;11.65;4.40;;;10.20;99.90;;;;;;5033101;28;20052;-78
2023/02/01 12:45:26;;;;;;;9.50;3.35;;;10.20;99.90;;;;;;5033847;28;20052;-79
2023/02/01 12:47:52;;;;;;;14.38;3.47;;;10.30;99.90;;;;;;5016813;28;20095;-79
2023/02/01 12:50:21;;;;;;;23.15;5.13;;;10.40;99.90;;;;;;5032913;28;20045;-80
2023/02/01 12:52:48;;;;;;;10.87;4.03;;;10.60;99.90;;;;;;5033983;28;20065;-79
2023/02/01 12:55:15;;;;;;;11.88;3.83;;;10.70;99.90;;;;;;5032544;28;20279;-80
2023/02/01 12:57:41;;;;;;;15.98;5.57;;;10.60;99.90;;;;;;4998886;28;20136;-80
2023/02/01 13:00:09;;;;;;;17.85;3.92;;;10.70;99.90;;;;;;5019957;28;20356;-79
2023/02/01 13:02:38;;;;;;;14.02;4.57;;;10.70;99.90;;;;;;5000796;28;20041;-81
2023/02/01 13:05:05;;;;;;;19.40;5.32;;;10.70;99.90;;;;;;5000031;28;20468;-80
2023/02/01 13:07:32;;;;;;;14.80;4.80;;;10.70;99.90;;;;;;5000280;28;20049;-80
2023/02/01 13:09:59;;;;;;;16.42;4.43;;;10.70;99.90;;;;;;4999557;28;20042;-81